Aviation Digital Data Service (ADDS)

Output produced by TAFs form (1042 UTC 20 August 2014)
found at http://aviationweather.gov/adds/tafs/
 
KGJT 200758Z 2008/2106 11008KT P6SM VCSH SCT070 BKN090 
     TEMPO 2008/2010 -SHRA BKN060 
     FM201000 VRB02KT P6SM OVC060 
     FM201600 14008KT P6SM BKN120 
     FM210000 27009KT P6SM BKN150